createdAt,value
2023-05-17T00:02:01.369Z,3.80
2023-05-17T00:04:28.408Z,4.10
2023-05-17T00:06:55.396Z,4.33
2023-05-17T00:09:22.236Z,3.67
2023-05-17T00:11:48.983Z,4.13
2023-05-17T00:14:16.099Z,3.63
2023-05-17T00:16:43.073Z,4.37
2023-05-17T00:19:09.878Z,5.13
2023-05-17T00:21:36.889Z,3.43
2023-05-17T00:24:03.830Z,3.83
2023-05-17T00:26:30.767Z,4.53
2023-05-17T00:28:57.429Z,4.13
2023-05-17T00:31:24.245Z,4.47
2023-05-17T00:33:51.203Z,4.30
2023-05-17T00:36:17.918Z,4.67
2023-05-17T00:38:44.673Z,4.67
2023-05-17T00:41:12.970Z,4.53
2023-05-17T00:43:40.088Z,4.20
2023-05-17T00:46:07.061Z,4.93
2023-05-17T00:48:33.920Z,4.07
2023-05-17T00:51:00.926Z,4.67
2023-05-17T00:53:28.772Z,4.00
2023-05-17T00:55:55.976Z,4.87
2023-05-17T00:58:23.949Z,4.83
2023-05-17T01:00:51.268Z,5.13
2023-05-17T01:03:18.205Z,5.37
2023-05-17T01:05:45.477Z,5.93
2023-05-17T01:08:12.211Z,4.57
2023-05-17T01:11:11.718Z,4.67
2023-05-17T01:13:52.188Z,5.33
2023-05-17T01:16:42.267Z,4.57
2023-05-17T01:19:20.882Z,4.97
2023-05-17T01:21:47.619Z,4.67
2023-05-17T01:24:25.044Z,4.33
2023-05-17T01:26:52.996Z,4.70
2023-05-17T01:29:25.893Z,6.70
2023-05-17T01:31:53.766Z,5.27
2023-05-17T01:34:30.292Z,4.87
2023-05-17T01:36:58.213Z,4.83
2023-05-17T01:39:25.371Z,5.50
2023-05-17T01:42:05.308Z,5.63
2023-05-17T01:44:58.028Z,4.50
2023-05-17T01:47:39.361Z,4.53
2023-05-17T01:50:08.407Z,4.90
2023-05-17T01:52:46.031Z,5.73
2023-05-17T01:55:48.684Z,5.03
2023-05-17T01:58:18.623Z,4.93
2023-05-17T02:00:48.720Z,4.77
2023-05-17T02:03:20.161Z,5.10
2023-05-17T02:05:47.217Z,4.63
2023-05-17T02:08:14.477Z,4.40
2023-05-17T02:10:41.384Z,5.37
2023-05-17T02:13:08.067Z,4.97
2023-05-17T02:15:34.800Z,5.33
2023-05-17T02:18:01.649Z,4.10
2023-05-17T02:20:28.601Z,5.73
2023-05-17T02:22:55.479Z,5.30
2023-05-17T02:25:22.273Z,5.00
2023-05-17T02:27:49.040Z,5.70
2023-05-17T02:30:18.081Z,4.77
2023-05-17T02:32:45.287Z,5.13
2023-05-17T02:35:12.233Z,4.43
2023-05-17T02:37:39.284Z,5.07
2023-05-17T02:40:09.591Z,4.60
2023-05-17T02:42:36.896Z,5.73
2023-05-17T02:45:04.238Z,4.83
2023-05-17T02:47:31.243Z,5.97
2023-05-17T02:49:58.160Z,4.13
2023-05-17T02:52:25.078Z,5.20
2023-05-17T02:54:51.945Z,5.07
2023-05-17T02:57:18.712Z,4.73
2023-05-17T02:59:45.833Z,4.90
2023-05-17T03:02:12.882Z,5.00
2023-05-17T03:04:39.884Z,5.37
2023-05-17T03:07:07.295Z,5.13
2023-05-17T03:09:34.553Z,5.17
2023-05-17T03:12:01.616Z,5.27
2023-05-17T03:14:28.322Z,5.13
2023-05-17T03:16:55.231Z,4.83
2023-05-17T03:19:22.109Z,5.63
2023-05-17T03:21:49.095Z,5.10
2023-05-17T03:24:15.850Z,5.13
2023-05-17T03:26:42.578Z,5.63
2023-05-17T03:29:09.470Z,4.53
2023-05-17T03:31:36.451Z,4.67
2023-05-17T03:34:03.301Z,5.67
2023-05-17T03:36:31.341Z,6.33
2023-05-17T03:38:58.038Z,5.73
2023-05-17T03:41:24.870Z,5.07
2023-05-17T03:43:51.604Z,5.60
2023-05-17T03:46:18.327Z,4.63
2023-05-17T03:48:45.043Z,5.13
2023-05-17T03:51:11.953Z,5.63
2023-05-17T03:53:43.108Z,5.73
2023-05-17T03:56:10.865Z,5.27
2023-05-17T03:58:37.951Z,6.20
2023-05-17T04:01:05.128Z,6.33
2023-05-17T04:03:32.028Z,5.63
2023-05-17T04:06:06.807Z,5.57
2023-05-17T04:08:36.440Z,6.83
2023-05-17T04:11:10.202Z,5.53
2023-05-17T04:13:39.828Z,6.20
2023-05-17T04:16:08.349Z,5.53
2023-05-17T04:18:36.616Z,5.40
2023-05-17T04:21:04.583Z,6.17
2023-05-17T04:23:32.475Z,5.43
2023-05-17T04:25:59.157Z,5.67
2023-05-17T04:28:26.413Z,5.63
2023-05-17T04:30:53.462Z,5.27
2023-05-17T04:33:20.348Z,5.53
2023-05-17T04:35:47.295Z,6.80
2023-05-17T04:38:14.250Z,5.87
2023-05-17T04:40:41.035Z,5.77
2023-05-17T04:43:08.006Z,6.23
2023-05-17T04:45:34.845Z,6.00
2023-05-17T04:48:02.211Z,6.77
2023-05-17T04:50:29.014Z,7.30
2023-05-17T04:52:55.790Z,6.50
2023-05-17T04:55:22.518Z,6.10
2023-05-17T04:57:49.310Z,6.37
2023-05-17T05:00:17.024Z,6.73
2023-05-17T05:02:43.822Z,5.97
2023-05-17T05:05:11.050Z,5.93
2023-05-17T05:07:39.770Z,6.00
2023-05-17T05:10:07.662Z,6.67
2023-05-17T05:12:34.455Z,6.47
2023-05-17T05:15:01.383Z,5.83
2023-05-17T05:17:33.311Z,6.23
2023-05-17T05:20:00.422Z,5.30
2023-05-17T05:22:27.236Z,5.47
2023-05-17T05:24:54.035Z,5.13
2023-05-17T05:27:20.782Z,5.70
2023-05-17T05:29:47.643Z,5.67
2023-05-17T05:32:16.034Z,5.70
2023-05-17T05:34:43.279Z,4.87
2023-05-17T05:37:09.956Z,4.77
2023-05-17T05:39:36.684Z,5.67
2023-05-17T05:42:04.308Z,4.87
2023-05-17T05:44:33.815Z,5.33
2023-05-17T05:47:00.522Z,4.27
2023-05-17T05:49:27.227Z,5.07
2023-05-17T05:51:53.928Z,6.13
2023-05-17T05:54:20.697Z,5.20
2023-05-17T05:56:47.388Z,4.47
2023-05-17T05:59:14.153Z,5.87
2023-05-17T06:01:41.550Z,3.93
2023-05-17T06:04:08.322Z,4.90
2023-05-17T06:06:35.737Z,4.47
2023-05-17T06:09:03.321Z,4.10
2023-05-17T06:11:30.240Z,4.40
2023-05-17T06:13:57.037Z,4.00
2023-05-17T06:16:23.765Z,4.20
2023-05-17T06:18:51.377Z,4.23
2023-05-17T06:21:18.663Z,4.27
2023-05-17T06:23:45.667Z,4.53
2023-05-17T06:26:12.402Z,3.47
2023-05-17T06:28:39.189Z,3.77
2023-05-17T06:31:05.911Z,3.20
2023-05-17T06:33:33.037Z,4.27
2023-05-17T06:38:27.300Z,3.57
2023-05-17T06:40:55.194Z,3.30
2023-05-17T06:43:22.742Z,3.77
2023-05-17T06:45:49.701Z,3.47
2023-05-17T06:48:16.938Z,3.23
2023-05-17T06:50:43.794Z,6.43
2023-05-17T06:53:10.474Z,3.20
2023-05-17T06:55:37.213Z,2.87
2023-05-17T06:58:04.038Z,3.97
2023-05-17T07:00:32.268Z,3.57
2023-05-17T07:02:59.865Z,3.57
2023-05-17T07:05:29.190Z,3.13
2023-05-17T07:07:56.639Z,2.13
2023-05-17T07:10:23.570Z,2.67
2023-05-17T07:12:50.836Z,3.00
2023-05-17T07:15:18.227Z,2.80
2023-05-17T07:17:45.820Z,2.70
2023-05-17T07:20:13.583Z,3.30
2023-05-17T07:22:41.123Z,2.30
2023-05-17T07:25:09.356Z,2.80
2023-05-17T07:27:37.233Z,3.27
2023-05-17T07:30:04.668Z,2.73
2023-05-17T07:32:31.826Z,2.10
2023-05-17T07:34:59.260Z,2.53
2023-05-17T07:37:26.524Z,3.03
2023-05-17T07:39:53.902Z,2.60
2023-05-17T07:42:21.136Z,2.00
2023-05-17T07:44:51.789Z,2.57
2023-05-17T07:47:19.147Z,3.63
2023-05-17T07:49:46.401Z,2.03
2023-05-17T07:52:13.548Z,2.53
2023-05-17T07:54:40.741Z,2.57
2023-05-17T07:57:07.988Z,2.53
2023-05-17T07:59:35.081Z,3.13
2023-05-17T08:02:02.290Z,2.60
2023-05-17T08:04:29.506Z,2.80
2023-05-17T08:06:56.720Z,2.40
2023-05-17T08:09:23.930Z,2.37
2023-05-17T08:11:51.374Z,2.40
2023-05-17T08:14:18.883Z,2.30
2023-05-17T08:16:47.062Z,3.27
2023-05-17T08:19:14.942Z,1.90
2023-05-17T08:21:42.625Z,2.47
2023-05-17T08:24:10.336Z,2.07
2023-05-17T08:26:37.568Z,2.17
2023-05-17T08:29:04.853Z,2.57
2023-05-17T08:31:32.569Z,2.57
2023-05-17T08:33:59.888Z,2.70
2023-05-17T08:36:27.963Z,2.93
2023-05-17T08:38:55.203Z,3.17
2023-05-17T08:41:22.742Z,2.43
2023-05-17T08:43:51.179Z,2.47
2023-05-17T08:46:23.667Z,2.13
2023-05-17T08:48:52.082Z,2.20
2023-05-17T08:51:20.583Z,2.73
2023-05-17T08:53:48.307Z,2.70
2023-05-17T08:56:17.441Z,2.57
2023-05-17T08:58:56.232Z,2.27
2023-05-17T09:01:26.414Z,3.20
2023-05-17T09:03:54.440Z,2.50
2023-05-17T09:06:22.529Z,2.00
2023-05-17T09:08:53.405Z,2.37
2023-05-17T09:11:30.688Z,2.40
2023-05-17T09:14:01.810Z,2.70
2023-05-17T09:16:30.075Z,2.40
2023-05-17T09:18:58.326Z,2.53
2023-05-17T09:21:26.221Z,2.37
2023-05-17T09:24:04.863Z,2.10
2023-05-17T09:26:43.841Z,2.10
2023-05-17T09:29:15.527Z,2.10
2023-05-17T09:31:43.202Z,2.53
2023-05-17T09:34:11.018Z,1.90
2023-05-17T09:36:39.139Z,2.97
2023-05-17T09:39:10.592Z,2.27
2023-05-17T09:41:48.697Z,2.27
2023-05-17T09:44:16.524Z,2.47
2023-05-17T09:46:50.191Z,2.17
2023-05-17T09:49:18.128Z,2.17
2023-05-17T09:51:49.985Z,2.83
2023-05-17T09:54:20.428Z,2.10
2023-05-17T09:56:54.654Z,2.43
2023-05-17T09:59:24.611Z,2.03
2023-05-17T10:01:51.800Z,2.83
2023-05-17T10:04:20.772Z,2.40
2023-05-17T10:06:51.715Z,2.53
2023-05-17T10:09:21.917Z,2.57
2023-05-17T10:11:49.415Z,2.30
2023-05-17T10:14:23.153Z,2.53
2023-05-17T10:16:50.898Z,2.20
2023-05-17T10:19:20.169Z,2.10
2023-05-17T10:21:51.445Z,2.47
2023-05-17T10:24:19.750Z,2.37
2023-05-17T10:26:47.171Z,3.37
2023-05-17T10:29:14.459Z,2.97
2023-05-17T10:31:41.922Z,2.43
2023-05-17T10:34:09.541Z,2.13
2023-05-17T10:36:37.236Z,2.70
2023-05-17T10:39:08.000Z,2.77
2023-05-17T10:41:35.883Z,2.20
2023-05-17T10:44:03.881Z,3.13
2023-05-17T10:46:31.636Z,2.20
2023-05-17T10:49:00.367Z,2.13
2023-05-17T10:51:31.503Z,1.93
2023-05-17T10:54:19.751Z,2.37
2023-05-17T10:56:54.136Z,2.67
2023-05-17T10:59:29.532Z,2.20
2023-05-17T11:02:06.851Z,2.77
2023-05-17T11:04:34.287Z,2.43
2023-05-17T11:07:17.092Z,2.77
2023-05-17T11:09:44.849Z,2.60
2023-05-17T11:12:12.869Z,2.40
2023-05-17T11:14:46.283Z,2.40
2023-05-17T11:17:37.895Z,2.67
2023-05-17T11:20:07.216Z,3.40
2023-05-17T11:22:38.649Z,2.77
2023-05-17T11:25:12.889Z,3.37
2023-05-17T11:27:50.039Z,2.70
2023-05-17T11:30:20.705Z,2.70
2023-05-17T11:32:51.987Z,2.50
2023-05-17T11:35:20.554Z,2.13
2023-05-17T11:37:49.324Z,2.70
2023-05-17T11:40:25.378Z,2.80
2023-05-17T11:43:10.097Z,2.50
2023-05-17T11:45:44.360Z,2.63
2023-05-17T11:48:15.048Z,3.03
2023-05-17T11:50:43.229Z,2.83
2023-05-17T11:53:11.045Z,2.67
2023-05-17T11:55:42.256Z,3.27
2023-05-17T11:58:10.257Z,2.93
2023-05-17T12:00:42.107Z,2.50
2023-05-17T12:03:22.858Z,2.67
2023-05-17T12:05:50.857Z,2.93
2023-05-17T12:08:18.702Z,2.60
2023-05-17T12:10:47.105Z,3.17
2023-05-17T12:13:14.329Z,2.83
2023-05-17T12:15:42.019Z,3.10
2023-05-17T12:18:09.349Z,2.30
2023-05-17T12:20:38.924Z,2.90
2023-05-17T12:23:06.129Z,3.30
2023-05-17T12:25:33.508Z,2.50
2023-05-17T12:28:22.345Z,3.40
2023-05-17T12:30:54.000Z,3.40
2023-05-17T12:33:21.434Z,3.10
2023-05-17T12:35:48.786Z,2.60
2023-05-17T12:38:16.349Z,3.03
2023-05-17T12:40:43.671Z,2.73
2023-05-17T12:43:10.951Z,3.40
2023-05-17T12:45:38.046Z,3.17
2023-05-17T12:48:05.505Z,2.77
2023-05-17T12:50:33.314Z,2.80
2023-05-17T12:53:00.576Z,3.40
2023-05-17T12:55:27.727Z,3.23
2023-05-17T12:57:55.198Z,3.23
2023-05-17T13:00:22.511Z,3.20
2023-05-17T13:02:49.757Z,2.97
2023-05-17T13:05:21.855Z,3.50
2023-05-17T13:07:49.835Z,3.20
2023-05-17T13:10:21.058Z,3.30
2023-05-17T13:12:58.478Z,3.10
2023-05-17T13:15:32.562Z,2.70
2023-05-17T13:18:00.268Z,2.83
2023-05-17T13:20:28.392Z,3.07
2023-05-17T13:22:55.770Z,3.20
2023-05-17T13:25:22.981Z,2.47
2023-05-17T13:27:50.162Z,3.17
2023-05-17T13:30:17.436Z,2.87
2023-05-17T13:32:47.133Z,3.27
2023-05-17T13:35:14.368Z,3.30
2023-05-17T13:37:41.543Z,2.97
2023-05-17T13:40:09.071Z,2.70
2023-05-17T13:42:36.758Z,2.80
2023-05-17T13:45:04.171Z,3.20
2023-05-17T13:47:32.306Z,3.03
2023-05-17T13:50:03.961Z,2.57
2023-05-17T13:52:31.413Z,2.67
2023-05-17T13:54:58.634Z,2.47
2023-05-17T13:57:26.016Z,3.03
2023-05-17T13:59:53.184Z,2.70
2023-05-17T14:02:20.324Z,3.43
2023-05-17T14:04:47.502Z,2.60
2023-05-17T14:07:14.729Z,2.63
2023-05-17T14:09:42.592Z,2.83
2023-05-17T14:12:09.845Z,2.57
2023-05-17T14:14:37.093Z,2.87
2023-05-17T14:17:04.294Z,2.53
2023-05-17T14:19:31.770Z,8.03
2023-05-17T14:21:59.060Z,2.63
2023-05-17T14:24:26.223Z,3.30
2023-05-17T14:26:53.462Z,3.20
2023-05-17T14:29:20.931Z,3.10
2023-05-17T14:31:48.136Z,2.90
2023-05-17T14:34:15.526Z,3.10
2023-05-17T14:36:42.778Z,2.40
2023-05-17T14:39:10.216Z,2.60
2023-05-17T14:41:39.156Z,2.40
2023-05-17T14:44:06.602Z,3.20
2023-05-17T14:46:34.382Z,2.90
2023-05-17T14:49:01.662Z,2.50
2023-05-17T14:51:29.388Z,2.93
2023-05-17T14:53:56.731Z,2.97
2023-05-17T14:56:24.481Z,2.73
2023-05-17T14:58:52.047Z,2.87
2023-05-17T15:01:19.295Z,2.50
2023-05-17T15:03:46.813Z,2.83
2023-05-17T15:06:13.997Z,2.70
2023-05-17T15:08:41.158Z,3.40
2023-05-17T15:11:08.314Z,3.33
2023-05-17T15:13:35.473Z,2.73
2023-05-17T15:16:03.388Z,3.80
2023-05-17T15:18:31.295Z,2.40
2023-05-17T15:20:58.473Z,2.83
2023-05-17T15:23:25.601Z,2.33
2023-05-17T15:25:52.762Z,3.00
2023-05-17T15:28:21.151Z,2.97
2023-05-17T15:30:48.393Z,2.63
2023-05-17T15:33:16.056Z,2.53
2023-05-17T15:35:44.436Z,2.27
2023-05-17T15:38:11.672Z,2.40
2023-05-17T15:40:38.843Z,3.33
2023-05-17T15:43:06.527Z,2.70
2023-05-17T15:45:33.979Z,2.63
2023-05-17T15:48:02.105Z,2.87
2023-05-17T15:50:29.405Z,2.50
2023-05-17T15:52:56.651Z,2.20
2023-05-17T15:55:23.880Z,2.73
2023-05-17T15:57:51.029Z,3.10
2023-05-17T16:00:18.293Z,2.80
2023-05-17T16:02:45.602Z,2.33
2023-05-17T16:05:12.854Z,3.10
2023-05-17T16:07:40.241Z,2.77
2023-05-17T16:10:08.026Z,2.50
2023-05-17T16:12:35.881Z,2.77
2023-05-17T16:15:03.032Z,2.47
2023-05-17T16:17:30.272Z,2.30
2023-05-17T16:19:57.556Z,2.40
2023-05-17T16:22:25.104Z,3.67
2023-05-17T16:24:53.779Z,2.70
2023-05-17T16:27:20.958Z,2.60
2023-05-17T16:29:48.100Z,2.70
2023-05-17T16:32:15.574Z,3.53
2023-05-17T16:34:42.934Z,2.57
2023-05-17T16:37:11.071Z,3.07
2023-05-17T16:39:38.232Z,2.73
2023-05-17T16:42:05.694Z,2.37
2023-05-17T16:44:32.847Z,2.67
2023-05-17T16:46:59.992Z,2.70
2023-05-17T16:49:27.167Z,2.27
2023-05-17T16:51:54.308Z,2.70
2023-05-17T16:56:57.385Z,2.77
2023-05-17T16:59:24.736Z,2.73
2023-05-17T17:04:33.583Z,2.67
2023-05-17T17:07:01.137Z,2.67
2023-05-17T17:09:28.316Z,2.53
2023-05-17T17:11:56.301Z,2.67
2023-05-17T17:14:24.336Z,2.93
2023-05-17T17:16:51.720Z,2.90
2023-05-17T17:19:19.088Z,2.47
2023-05-17T17:21:46.247Z,2.60
2023-05-17T17:24:13.552Z,2.73
2023-05-17T17:26:41.069Z,2.83
2023-05-17T17:29:09.099Z,2.77
2023-05-17T17:31:36.358Z,2.67
2023-05-17T17:34:03.506Z,2.40
2023-05-17T17:36:31.141Z,2.30
2023-05-17T17:38:58.299Z,2.40
2023-05-17T17:41:26.158Z,3.67
2023-05-17T17:43:54.444Z,2.40
2023-05-17T17:46:21.719Z,2.60
2023-05-17T17:48:48.878Z,2.50
2023-05-17T17:51:18.243Z,2.10
2023-05-17T17:53:45.519Z,2.90
2023-05-17T17:56:12.700Z,3.03
2023-05-17T17:58:39.827Z,3.03
2023-05-17T18:01:07.023Z,3.53
2023-05-17T18:03:35.049Z,2.80
2023-05-17T18:06:05.140Z,2.37
2023-05-17T18:08:32.683Z,2.30
2023-05-17T18:10:59.875Z,2.20
2023-05-17T18:13:27.008Z,2.97
2023-05-17T18:15:54.151Z,2.30
2023-05-17T18:18:21.316Z,3.27
2023-05-17T18:20:48.451Z,2.00
2023-05-17T18:23:15.604Z,2.23
2023-05-17T18:25:42.750Z,2.53
2023-05-17T18:28:09.914Z,2.40
2023-05-17T18:30:37.211Z,2.50
2023-05-17T18:33:04.596Z,2.57
2023-05-17T18:35:32.355Z,3.13
2023-05-17T18:38:02.581Z,2.90
2023-05-17T18:40:29.972Z,2.60
2023-05-17T18:42:57.307Z,2.37
2023-05-17T18:45:24.429Z,2.67
2023-05-17T18:47:51.630Z,2.87
2023-05-17T18:50:18.758Z,3.47
2023-05-17T18:52:45.892Z,2.57
2023-05-17T18:55:13.461Z,3.13
2023-05-17T18:57:42.284Z,3.80
2023-05-17T19:00:09.870Z,3.10
2023-05-17T19:02:37.331Z,2.20
2023-05-17T19:05:04.730Z,4.43
2023-05-17T19:07:31.890Z,2.67
2023-05-17T19:09:59.029Z,2.63
2023-05-17T19:12:26.205Z,3.40
2023-05-17T19:14:53.577Z,3.20
2023-05-17T19:17:22.182Z,2.90
2023-05-17T19:19:49.319Z,3.13
2023-05-17T19:22:16.543Z,3.20
2023-05-17T19:24:43.926Z,4.13
2023-05-17T19:27:11.989Z,3.40
2023-05-17T19:29:39.108Z,3.87
2023-05-17T19:32:06.506Z,3.27
2023-05-17T19:34:33.847Z,2.97
2023-05-17T19:37:00.968Z,2.30
2023-05-17T19:39:28.149Z,3.80
2023-05-17T19:41:55.305Z,3.30
2023-05-17T19:44:22.639Z,3.37
2023-05-17T19:46:49.959Z,2.83
2023-05-17T19:49:17.760Z,3.53
2023-05-17T19:51:46.171Z,2.63
2023-05-17T19:54:13.384Z,3.00
2023-05-17T19:56:40.745Z,3.00
2023-05-17T19:59:07.999Z,2.80
2023-05-17T20:01:35.276Z,2.90
2023-05-17T20:04:02.519Z,3.00
2023-05-17T20:06:29.715Z,2.87
2023-05-17T20:08:56.797Z,2.93
2023-05-17T20:11:26.630Z,2.60
2023-05-17T20:13:53.696Z,2.97
2023-05-17T20:16:20.905Z,2.90
2023-05-17T20:18:48.205Z,2.77
2023-05-17T20:21:21.686Z,2.90
2023-05-17T20:23:48.906Z,2.83
2023-05-17T20:26:17.151Z,2.40
2023-05-17T20:28:45.091Z,3.20
2023-05-17T20:31:12.604Z,2.97
2023-05-17T20:33:39.753Z,3.40
2023-05-17T20:36:07.328Z,3.27
2023-05-17T20:38:34.589Z,3.13
2023-05-17T20:41:01.741Z,2.57
2023-05-17T20:43:29.892Z,3.07
2023-05-17T20:45:57.215Z,2.30
2023-05-17T20:48:24.398Z,2.77
2023-05-17T20:50:51.656Z,2.40
2023-05-17T20:53:18.733Z,2.50
2023-05-17T20:55:45.798Z,3.00
2023-05-17T20:58:12.937Z,3.27
2023-05-17T21:00:40.076Z,3.77
2023-05-17T21:03:10.939Z,3.47
2023-05-17T21:05:38.479Z,3.37
2023-05-17T21:08:07.356Z,3.20
2023-05-17T21:10:36.234Z,3.43
2023-05-17T21:13:03.458Z,3.23
2023-05-17T21:15:31.014Z,3.77
2023-05-17T21:17:58.404Z,2.80
2023-05-17T21:20:25.588Z,3.07
2023-05-17T21:22:52.841Z,4.27
2023-05-17T21:25:20.057Z,3.00
2023-05-17T21:27:47.466Z,4.77
2023-05-17T21:30:15.173Z,4.87
2023-05-17T21:32:42.477Z,4.13
2023-05-17T21:35:09.704Z,3.40
2023-05-17T21:37:39.991Z,4.10
2023-05-17T21:40:07.895Z,3.50
2023-05-17T21:42:35.386Z,3.13
2023-05-17T21:45:02.886Z,3.20
2023-05-17T21:47:30.296Z,2.53
2023-05-17T21:49:57.663Z,2.70
2023-05-17T21:52:24.871Z,3.70
2023-05-17T21:54:52.102Z,2.90
2023-05-17T21:57:20.904Z,3.23
2023-05-17T21:59:48.577Z,2.80
2023-05-17T22:02:16.433Z,2.70
2023-05-17T22:04:43.713Z,2.77
2023-05-17T22:07:13.008Z,3.23
2023-05-17T22:09:40.156Z,2.40
2023-05-17T22:12:08.728Z,2.90
2023-05-17T22:14:36.501Z,2.40
2023-05-17T22:17:08.632Z,2.83
2023-05-17T22:19:41.008Z,2.47
2023-05-17T22:22:08.696Z,2.93
2023-05-17T22:24:40.091Z,3.13
2023-05-17T22:27:07.903Z,3.70
2023-05-17T22:29:35.157Z,2.60
2023-05-17T22:32:02.367Z,3.13
2023-05-17T22:34:30.148Z,2.47
2023-05-17T22:36:57.505Z,2.57
2023-05-17T22:39:24.810Z,2.70
2023-05-17T22:41:54.016Z,3.07
2023-05-17T22:44:21.944Z,2.83
2023-05-17T22:46:49.314Z,3.07
2023-05-17T22:49:17.043Z,2.37
2023-05-17T22:51:44.409Z,2.93
2023-05-17T22:54:11.784Z,2.63
2023-05-17T22:56:39.234Z,2.90
2023-05-17T22:59:06.612Z,3.03
2023-05-17T23:01:34.160Z,3.37
2023-05-17T23:04:01.340Z,2.50
2023-05-17T23:06:32.353Z,3.20
2023-05-17T23:09:00.244Z,3.20
2023-05-17T23:11:28.536Z,3.70
2023-05-17T23:13:56.257Z,3.50
2023-05-17T23:16:26.365Z,2.83
2023-05-17T23:18:53.691Z,3.07
2023-05-17T23:21:21.456Z,2.90
2023-05-17T23:23:48.928Z,2.80
2023-05-17T23:26:17.224Z,3.27
2023-05-17T23:28:44.583Z,2.90
2023-05-17T23:31:11.902Z,3.27
2023-05-17T23:33:42.734Z,3.17
2023-05-17T23:36:10.062Z,3.87
2023-05-17T23:38:37.277Z,2.80
2023-05-17T23:41:05.594Z,2.90
2023-05-17T23:43:33.148Z,4.17
2023-05-17T23:46:02.082Z,3.57
2023-05-17T23:48:29.256Z,3.37
2023-05-17T23:50:56.609Z,3.43
2023-05-17T23:53:26.238Z,2.50
2023-05-17T23:55:53.581Z,4.50
2023-05-17T23:58:21.480Z,3.50
